Station: Cape Byron  

  Atmospheric Gas Attenuation - ITU Rec 676-11   ----------------- dB/100km -----------------
Date Time Temp RH % AH g/m3 Dew Point Wind Direction Speed kph Gust kph Barometer mB Rainfall Since 9am 24GHz 47GHz 76GHz 122GHz 134GHz 241GHz
08/05 12:30 17.5 35 5.22 1.9 13 19 1018.8 0 12.3 20.1 26.1 67.8 54.3 184.1
08/05 12:20 17.5 36 5.37 2.3 15 17 1019 0 12.6 20.3 26.6 69.2 55.9 190.0
08/05 12:10 17.3 39 5.75 3.2 11 13 1019.1 0 13.4 20.9 28.0 72.8 60.4 205.5
08/05 12:00 17.2 38 5.56 2.8 13 24 1019.2 0 13.0 20.7 27.4 71.2 58.3 198.2
08/05 11:50 16.6 34 4.8 0.7 17 19 1019.3 0 11.4 19.8 25.0 64.8 50.2 169.8
08/05 11:40 16.6 36 5.09 1.5 22 24 1019.4 0 12.0 20.2 26.0 67.4 53.5 181.1
08/05 11:30 16.3 36 4.99 1.2 20 28 1019.8 0 11.8 20.1 25.7 66.8 52.6 177.9
08/05 11:20 16.1 37 5.07 1.4 22 28 1019.8 0 12.0 20.3 26.1 67.7 53.6 181.5
08/05 11:10 15.9 37 5.01 1.2 17 22 1020 0 11.9 20.2 25.9 67.3 53.0 179.6
08/05 11:00 15.8 38 5.12 1.5 19 26 1020.2 0 12.1 20.4 26.4 68.4 54.4 184.2
08/05 10:50 15.7 41 5.49 2.5 20 24 1020.3 0 12.9 21.0 27.7 71.9 58.6 199.2
08/05 10:40 15.2 37 4.8 0.6 26 33 1020.2 0 11.5 20.1 25.5 66.0 51.2 172.8
08/05 10:30 15 36 4.62 0.1 24 33 1020.6 0 11.1 19.9 24.9 64.6 49.3 166.2
08/05 10:20 14.8 35 4.43 -0.5 26 30 1020.6 0 10.7 19.7 24.3 63.0 47.3 159.1
08/05 10:10 14.8 36 4.56 -0.1 20 24 1020.6 0 11.0 19.9 24.8 64.2 48.7 164.2
08/05 10:00 14.8 40 5.07 1.3 26 37 1020.6 0 12.1 20.6 26.5 68.9 54.5 184.5
08/05 09:50 14.4 35 4.33 -0.8 26 33 1020.5 0 10.5 19.6 24.1 62.4 46.4 156.0
08/05 09:40 14.2 35 4.27 -1 30 33 1020.4 0 10.4 19.6 24.0 62.0 45.8 154.0
08/05 09:30 14 35 4.22 -1.2 30 39 1020.6 0 10.3 19.6 23.9 61.7 45.4 152.4
08/05 09:20 13.7 37 4.38 -0.7 32 33 1020.4 0 10.6 19.8 24.5 63.4 47.4 159.3
08/05 09:10 13.5 36 4.21 -1.3 30 33 1020.4 0 10.3 19.7 24.0 62.0 45.6 152.9
08/05 09:00 13 39 4.42 -0.6 28 35 1020.4 0 10.7 20.1 24.8 64.3 48.2 162.2
08/05 08:50 12.9 37 4.17 -1.4 28 33 1020.5 0 10.2 19.7 24.0 62.1 45.5 152.5
08/05 08:40 12.8 36 4.03 -1.9 24 28 1020.6 0 9.9 19.6 23.6 60.9 43.9 147.1
08/05 08:30 12.5 38 4.18 -1.4 28 39 1020.6 0 10.3 19.8 24.2 62.5 45.8 153.6
08/05 08:20 12.4 37 4.04 -1.9 24 30 1020.6 0 10.0 19.7 23.7 61.3 44.3 148.2
08/05 08:10 12.2 38 4.1 -1.7 32 37 1020.4 0 10.1 19.8 24.0 62.0 45.1 151.0
08/05 08:00 12 39 4.16 -1.5 30 41 1020.4 0 10.2 19.9 24.2 62.7 45.8 153.7
08/05 07:50 11.8 39 4.11 -1.7 28 33 1020.2 0 10.1 19.9 24.1 62.4 45.4 152.1
08/05 07:40 11.8 38 4 -2 32 37 1020.2 0 9.9 19.7 23.7 61.4 44.1 147.7
08/05 07:30 11.6 38 3.95 -2.2 32 44 1020.5 0 9.8 19.7 23.6 61.1 43.7 146.1
08/05 07:20 11.6 37 3.85 -2.6 33 41 1020.2 0 9.6 19.6 23.3 60.2 42.5 142.1
08/05 07:10 11.3 38 3.88 -2.5 32 35 1020.2 0 9.7 19.7 23.5 60.7 43.0 143.8
08/05 07:00 11.3 39 3.98 -2.1 26 35 1020.3 0 9.9 19.8 23.8 61.6 44.2 147.8
08/05 06:50 11.1 39 3.93 -2.3 24 28 1020.1 0 9.8 19.8 23.7 61.3 43.7 146.1
08/05 06:40 11.1 40 4.03 -2 24 28 1020 0 10.0 19.9 24.0 62.2 44.9 150.1
08/05 06:30 11.3 38 3.88 -2.5 26 37 1020 0 9.7 19.7 23.5 60.6 43.0 143.7
08/05 06:20 11.4 36 3.7 -3.1 30 35 1019.7 0 9.3 19.4 22.8 58.9 40.9 136.4
08/05 06:10 11.5 36 3.72 -3 32 35 1019.7 0 9.3 19.4 22.9 59.0 41.1 137.0
08/05 06:00 11.7 35 3.66 -3.2 35 43 1019.5 0 9.2 19.3 22.6 58.3 40.3 134.3
08/05 05:50 11.9 33 3.5 -3.8 37 41 1019.4 0 8.8 19.0 22.0 56.7 38.5 127.7
08/05 05:40 11.8 34 3.58 -3.5 32 35 1019.4 0 9.0 19.1 22.3 57.5 39.4 131.0
08/05 05:30 11.8 34 3.58 -3.5 32 39 1019.3 0 9.0 19.1 22.3 57.5 39.4 131.0
08/05 05:20 11.8 35 3.68 -3.1 30 35 1019.1 0 9.2 19.2 22.6 58.4 40.5 134.9
08/05 05:10 11.9 34 3.6 -3.4 28 33 1019 0 9.0 19.1 22.3 57.6 39.5 131.6
08/05 05:00 11.8 34 3.58 -3.5 26 35 1019 0 9.0 19.1 22.3 57.5 39.4 130.9
08/05 04:50 11.9 33 3.5 -3.8 28 35 1019 0 8.8 19.0 22.0 56.7 38.4 127.7
08/05 04:40 11.7 35 3.66 -3.2 26 32 1018.8 0 9.2 19.2 22.6 58.3 40.3 134.2
08/05 04:30 12.1 34 3.65 -3.3 26 32 1018.9 0 9.1 19.1 22.4 57.9 40.0 133.2
08/05 04:20 11.7 38 3.98 -2.1 24 28 1018.7 0 9.9 19.7 23.6 61.2 43.9 146.9
08/05 04:10 12.1 37 3.97 -2.1 32 35 1018.6 0 9.8 19.6 23.5 60.8 43.6 145.7
08/05 04:00 12.1 39 4.18 -1.4 32 39 1018.3 0 10.3 19.8 24.2 62.7 45.9 154.1
08/05 03:50 12.3 36 3.91 -2.3 32 35 1018.1 0 9.7 19.4 23.2 60.0 42.8 143.0
08/05 03:40 12.5 35 3.85 -2.5 32 39 1018.2 0 9.6 19.3 23.0 59.4 42.0 140.3
08/05 03:30 12.8 32 3.58 -3.5 28 35 1018.1 0 9.0 18.9 22.0 56.7 38.9 129.3
08/05 03:20 12.8 32 3.58 -3.5 26 30 1018.2 0 9.0 18.9 22.0 56.7 38.9 129.3
08/05 03:10 12.9 33 3.72 -3 28 33 1018.1 0 9.3 19.0 22.4 57.9 40.3 134.5
08/05 03:00 13.1 31 3.54 -3.6 26 39 1018.2 0 8.9 18.8 21.8 56.2 38.3 127.3
08/05 02:50 13.2 31 3.56 -3.5 26 32 1018 0 8.9 18.8 21.8 56.3 38.4 127.9
08/05 02:40 13.1 33 3.77 -2.8 28 33 1018 0 9.4 19.1 22.5 58.2 40.8 136.1
08/05 02:30 13.2 35 4.02 -1.9 28 35 1017.8 0 9.9 19.4 23.3 60.3 43.5 145.7
08/05 02:20 13.5 36 4.21 -1.3 30 33 1017.8 0 10.3 19.6 23.9 61.8 45.5 152.6
08/05 02:10 13.6 37 4.35 -0.8 32 37 1017.8 0 10.6 19.7 24.3 63.0 47.0 157.9
08/05 02:00 13.7 38 4.5 -0.3 32 43 1017.8 0 10.9 19.9 24.8 64.3 48.6 163.6
08/05 01:50 13.8 41 4.89 0.8 32 37 1017.6 0 11.7 20.4 26.1 67.8 52.9 179.0
08/05 01:40 14.1 41 4.98 1.1 35 39 1017.7 0 11.9 20.5 26.3 68.4 53.8 182.0
08/05 01:30 14.2 42 5.13 1.5 35 46 1017.6 0 12.2 20.7 26.8 69.7 55.4 187.8
08/05 01:20 14.3 43 5.28 1.9 32 35 1017.6 0 12.5 20.9 27.3 71.0 57.1 193.6
08/05 01:10 14.6 44 5.51 2.5 33 39 1017.6 0 13.0 21.1 28.0 72.9 59.5 202.3
08/05 01:00 14.5 48 5.97 3.6 32 43 1017.6 0 14.0 21.8 29.7 77.4 65.0 221.5
08/05 00:50 14.8 48 6.08 3.9 30 35 1017.7 0 14.2 21.9 30.0 78.1 66.1 225.3
08/05 00:40 15.1 48 6.19 4.2 30 35 1017.8 0 14.4 22.0 30.3 78.9 67.1 229.0
08/05 00:20 15.2 50 6.49 4.9 26 30 1017.8 0 15.0 22.4 31.3 81.7 70.6 241.3
08/05 00:10 15.4 50 6.57 5 26 30 1018 0 15.2 22.5 31.5 82.3 71.4 244.1
08/05 00:00 15.8 48 6.46 4.8 30 41 1017.7 0 15.0 22.2 31.0 80.8 69.7 238.3
07/05 23:50 15.9 50 6.77 5.5 32 35 1017.8 0 15.6 22.7 32.0 83.7 73.4 251.0
07/05 23:40 16.3 48 6.66 5.3 30 37 1017.7 0 15.4 22.4 31.5 82.2 71.7 245.1
07/05 23:30 16.5 47 6.6 5.2 30 46 1017.6 0 15.2 22.3 31.2 81.4 70.8 242.0
07/05 23:20 16.4 49 6.84 5.7 26 32 1017.8 0 15.7 22.6 32.1 83.9 73.7 252.4
07/05 23:10 16.7 47 6.68 5.3 32 37 1017.4 0 15.4 22.3 31.4 82.0 71.5 244.7
07/05 23:00 17 46 6.66 5.3 33 43 1017.6 0 15.3 22.2 31.2 81.5 71.1 243.0
07/05 22:50 17 47 6.8 5.6 32 44 1017.3 0 15.6 22.4 31.7 82.8 72.7 248.7
07/05 22:40 16.9 47 6.76 5.5 32 37 1017.1 0 15.5 22.4 31.6 82.5 72.3 247.3
07/05 22:30 16.9 47 6.76 5.5 32 41 1017.2 0 15.5 22.4 31.6 82.5 72.3 247.4
07/05 22:20 17.2 46 6.74 5.5 28 33 1017 0 15.5 22.3 31.4 82.0 71.8 245.6
07/05 22:10 17.5 44 6.56 5.1 30 39 1016.9 0 15.1 21.9 30.6 80.0 69.4 237.3
07/05 22:00 17.7 44 6.64 5.3 32 43 1016.9 0 15.3 22.0 30.9 80.6 70.2 239.9
07/05 21:50 17.7 44 6.64 5.3 24 32 1017 0 15.3 22.0 30.9 80.6 70.2 240.0
07/05 21:40 18 43 6.6 5.2 28 32 1017 0 15.2 21.9 30.6 79.9 69.4 237.5
07/05 21:30 18 44 6.76 5.6 32 41 1016.6 0 15.5 22.1 31.2 81.4 71.3 243.9
07/05 21:20 18.2 43 6.68 5.4 32 37 1016.6 0 15.3 21.9 30.8 80.4 70.2 240.0
07/05 21:10 18.2 44 6.84 5.8 30 43 1016.4 0 15.7 22.2 31.4 81.9 72.0 246.5
07/05 21:00 18.5 44 6.96 6 28 44 1016.3 0 15.9 22.3 31.7 82.7 73.1 250.5
07/05 20:50 18.8 43 6.92 6 28 35 1016 0 15.8 22.1 31.4 82.0 72.4 247.9
07/05 20:40 19.1 40 6.56 5.2 32 44 1015.7 0 15.0 21.5 30.0 78.3 68.0 232.4
07/05 20:30 19.4 39 6.51 5.1 32 43 1015.6 0 14.9 21.4 29.7 77.6 67.1 229.5
07/05 20:20 19.3 40 6.63 5.4 28 35 1015.3 0 15.2 21.6 30.2 78.8 68.6 234.6
07/05 20:10 19.3 41 6.8 5.7 26 33 1015.2 0 15.5 21.8 30.8 80.3 70.5 241.4
07/05 20:00 19.4 40 6.67 5.5 22 32 1015.2 0 15.3 21.6 30.3 79.0 68.9 235.9
07/05 19:50 19.6 40 6.75 5.6 22 30 1015.1 0 15.4 21.7 30.5 79.6 69.7 238.5

Last Refresh: 08-May-2026 12:07:38

Bureau of Meteorology